sensor_id;sensor_type;location;lat;lon;timestamp;temperature;humidity
39957;DHT22;48483;44.640;7.494;2022-07-29T00:02:04;25.00;99.10
39957;DHT22;48483;44.640;7.494;2022-07-29T00:04:34;25.00;99.90
39957;DHT22;48483;44.640;7.494;2022-07-29T00:07:00;25.00;99.90
39957;DHT22;48483;44.640;7.494;2022-07-29T00:09:27;24.90;99.90
39957;DHT22;48483;44.640;7.494;2022-07-29T00:11:55;24.90;99.90
39957;DHT22;48483;44.640;7.494;2022-07-29T00:14:23;24.90;99.90
39957;DHT22;48483;44.640;7.494;2022-07-29T00:16:49;24.80;99.90
39957;DHT22;48483;44.640;7.494;2022-07-29T00:19:16;24.80;99.90
39957;DHT22;48483;44.640;7.494;2022-07-29T00:21:44;24.80;99.90
39957;DHT22;48483;44.640;7.494;2022-07-29T00:24:11;24.90;99.90
39957;DHT22;48483;44.640;7.494;2022-07-29T00:26:38;24.80;99.90
39957;DHT22;48483;44.640;7.494;2022-07-29T00:29:04;24.90;99.80
39957;DHT22;48483;44.640;7.494;2022-07-29T00:31:32;24.80;99.80
39957;DHT22;48483;44.640;7.494;2022-07-29T00:33:58;24.80;99.70
39957;DHT22;48483;44.640;7.494;2022-07-29T00:36:25;24.80;99.80
39957;DHT22;48483;44.640;7.494;2022-07-29T00:38:53;24.80;99.90
39957;DHT22;48483;44.640;7.494;2022-07-29T00:41:20;24.80;99.90
39957;DHT22;48483;44.640;7.494;2022-07-29T00:43:47;24.70;99.90
39957;DHT22;48483;44.640;7.494;2022-07-29T00:46:14;24.80;99.90
39957;DHT22;48483;44.640;7.494;2022-07-29T00:48:40;24.80;99.90
39957;DHT22;48483;44.640;7.494;2022-07-29T00:51:07;24.70;99.90
39957;DHT22;48483;44.640;7.494;2022-07-29T00:53:34;24.70;99.90
39957;DHT22;48483;44.640;7.494;2022-07-29T00:56:04;24.70;99.90
39957;DHT22;48483;44.640;7.494;2022-07-29T00:58:31;24.70;99.90
39957;DHT22;48483;44.640;7.494;2022-07-29T01:00:58;24.70;99.90
39957;DHT22;48483;44.640;7.494;2022-07-29T01:03:25;24.70;99.90
39957;DHT22;48483;44.640;7.494;2022-07-29T01:05:53;24.70;99.90
39957;DHT22;48483;44.640;7.494;2022-07-29T01:08:20;24.70;99.90
39957;DHT22;48483;44.640;7.494;2022-07-29T01:10:48;24.70;99.90
39957;DHT22;48483;44.640;7.494;2022-07-29T01:13:16;24.60;99.90
39957;DHT22;48483;44.640;7.494;2022-07-29T01:15:47;24.60;99.90
39957;DHT22;48483;44.640;7.494;2022-07-29T01:18:20;24.60;99.90
39957;DHT22;48483;44.640;7.494;2022-07-29T01:21:07;24.60;99.90
39957;DHT22;48483;44.640;7.494;2022-07-29T01:24:06;24.60;99.90
39957;DHT22;48483;44.640;7.494;2022-07-29T01:26:47;24.60;99.90
39957;DHT22;48483;44.640;7.494;2022-07-29T01:29:24;24.50;99.90
39957;DHT22;48483;44.640;7.494;2022-07-29T01:31:56;24.50;99.90
39957;DHT22;48483;44.640;7.494;2022-07-29T01:34:27;24.50;99.90
39957;DHT22;48483;44.640;7.494;2022-07-29T01:37:03;24.50;99.90
39957;DHT22;48483;44.640;7.494;2022-07-29T01:39:33;24.50;99.90
39957;DHT22;48483;44.640;7.494;2022-07-29T01:42:06;24.50;99.90
39957;DHT22;48483;44.640;7.494;2022-07-29T01:44:41;24.50;99.90
39957;DHT22;48483;44.640;7.494;2022-07-29T01:47:15;24.50;99.90
39957;DHT22;48483;44.640;7.494;2022-07-29T01:49:47;24.40;99.90
39957;DHT22;48483;44.640;7.494;2022-07-29T01:52:20;24.40;99.90
39957;DHT22;48483;44.640;7.494;2022-07-29T01:54:52;24.40;99.90
39957;DHT22;48483;44.640;7.494;2022-07-29T01:57:24;24.40;99.90
39957;DHT22;48483;44.640;7.494;2022-07-29T01:59:54;24.40;99.90
39957;DHT22;48483;44.640;7.494;2022-07-29T02:02:23;24.40;99.90
39957;DHT22;48483;44.640;7.494;2022-07-29T02:04:51;24.40;99.90
39957;DHT22;48483;44.640;7.494;2022-07-29T02:07:21;24.40;99.90
39957;DHT22;48483;44.640;7.494;2022-07-29T02:09:49;24.40;99.90
39957;DHT22;48483;44.640;7.494;2022-07-29T02:12:18;24.40;99.90
39957;DHT22;48483;44.640;7.494;2022-07-29T02:14:48;24.40;99.90
39957;DHT22;48483;44.640;7.494;2022-07-29T02:17:22;24.40;99.90
39957;DHT22;48483;44.640;7.494;2022-07-29T02:19:50;24.40;99.90
39957;DHT22;48483;44.640;7.494;2022-07-29T02:22:18;24.40;99.90
39957;DHT22;48483;44.640;7.494;2022-07-29T02:24:46;24.30;99.90
39957;DHT22;48483;44.640;7.494;2022-07-29T02:27:14;24.30;99.90
39957;DHT22;48483;44.640;7.494;2022-07-29T02:29:41;24.30;99.90
39957;DHT22;48483;44.640;7.494;2022-07-29T02:32:10;24.20;99.90
39957;DHT22;48483;44.640;7.494;2022-07-29T02:34:41;24.10;99.90
39957;DHT22;48483;44.640;7.494;2022-07-29T02:37:09;24.10;99.90
39957;DHT22;48483;44.640;7.494;2022-07-29T02:39:37;24.00;99.90
39957;DHT22;48483;44.640;7.494;2022-07-29T02:42:08;23.90;99.90
39957;DHT22;48483;44.640;7.494;2022-07-29T02:44:36;23.90;99.90
39957;DHT22;48483;44.640;7.494;2022-07-29T02:47:07;23.90;99.90
39957;DHT22;48483;44.640;7.494;2022-07-29T02:49:38;23.90;99.90
39957;DHT22;48483;44.640;7.494;2022-07-29T02:52:09;23.80;99.90
39957;DHT22;48483;44.640;7.494;2022-07-29T02:54:41;23.90;99.90
39957;DHT22;48483;44.640;7.494;2022-07-29T02:57:10;23.90;99.90
39957;DHT22;48483;44.640;7.494;2022-07-29T02:59:38;23.90;99.90
39957;DHT22;48483;44.640;7.494;2022-07-29T03:02:07;23.90;99.90
39957;DHT22;48483;44.640;7.494;2022-07-29T03:04:35;23.90;99.90
39957;DHT22;48483;44.640;7.494;2022-07-29T03:07:02;23.90;99.90
39957;DHT22;48483;44.640;7.494;2022-07-29T03:09:31;23.90;99.90
39957;DHT22;48483;44.640;7.494;2022-07-29T03:12:00;23.90;99.90
39957;DHT22;48483;44.640;7.494;2022-07-29T03:14:28;23.90;99.90
39957;DHT22;48483;44.640;7.494;2022-07-29T03:16:55;23.90;99.90
39957;DHT22;48483;44.640;7.494;2022-07-29T03:19:22;23.90;99.90
39957;DHT22;48483;44.640;7.494;2022-07-29T03:21:49;23.90;99.90
39957;DHT22;48483;44.640;7.494;2022-07-29T03:24:26;23.90;99.90
39957;DHT22;48483;44.640;7.494;2022-07-29T03:26:56;23.90;99.90
39957;DHT22;48483;44.640;7.494;2022-07-29T03:29:23;23.90;99.90
39957;DHT22;48483;44.640;7.494;2022-07-29T03:31:50;23.80;99.90
39957;DHT22;48483;44.640;7.494;2022-07-29T03:34:17;23.90;99.90
39957;DHT22;48483;44.640;7.494;2022-07-29T03:36:44;23.80;99.90
39957;DHT22;48483;44.640;7.494;2022-07-29T03:39:12;23.80;99.90
39957;DHT22;48483;44.640;7.494;2022-07-29T03:41:40;23.80;99.90
39957;DHT22;48483;44.640;7.494;2022-07-29T03:44:10;23.80;99.90
39957;DHT22;48483;44.640;7.494;2022-07-29T03:46:39;23.80;99.90
39957;DHT22;48483;44.640;7.494;2022-07-29T03:49:08;23.80;99.90
39957;DHT22;48483;44.640;7.494;2022-07-29T03:51:35;23.70;99.90
39957;DHT22;48483;44.640;7.494;2022-07-29T03:54:03;23.70;99.90
39957;DHT22;48483;44.640;7.494;2022-07-29T03:56:32;23.70;99.90
39957;DHT22;48483;44.640;7.494;2022-07-29T03:59:02;23.70;99.90
39957;DHT22;48483;44.640;7.494;2022-07-29T04:01:32;23.70;99.90
39957;DHT22;48483;44.640;7.494;2022-07-29T04:04:00;23.70;99.90
39957;DHT22;48483;44.640;7.494;2022-07-29T04:06:27;23.70;99.90
39957;DHT22;48483;44.640;7.494;2022-07-29T04:08:54;23.70;99.90
39957;DHT22;48483;44.640;7.494;2022-07-29T04:11:21;23.70;99.90
39957;DHT22;48483;44.640;7.494;2022-07-29T04:13:47;23.70;99.90
39957;DHT22;48483;44.640;7.494;2022-07-29T04:16:14;23.70;99.90
39957;DHT22;48483;44.640;7.494;2022-07-29T04:18:42;23.70;99.90
39957;DHT22;48483;44.640;7.494;2022-07-29T04:21:09;23.60;99.90
39957;DHT22;48483;44.640;7.494;2022-07-29T04:23:36;23.60;99.90
39957;DHT22;48483;44.640;7.494;2022-07-29T04:26:02;23.50;99.90
39957;DHT22;48483;44.640;7.494;2022-07-29T04:28:29;23.40;99.90
39957;DHT22;48483;44.640;7.494;2022-07-29T04:30:56;23.40;99.90
39957;DHT22;48483;44.640;7.494;2022-07-29T04:33:22;23.40;99.90
39957;DHT22;48483;44.640;7.494;2022-07-29T04:35:50;23.50;99.90
39957;DHT22;48483;44.640;7.494;2022-07-29T04:38:17;23.50;99.90
39957;DHT22;48483;44.640;7.494;2022-07-29T04:40:44;23.50;99.90
39957;DHT22;48483;44.640;7.494;2022-07-29T04:43:11;23.40;99.90
39957;DHT22;48483;44.640;7.494;2022-07-29T04:45:37;23.50;99.90
39957;DHT22;48483;44.640;7.494;2022-07-29T04:48:04;23.50;99.90
39957;DHT22;48483;44.640;7.494;2022-07-29T04:50:31;23.50;99.90
39957;DHT22;48483;44.640;7.494;2022-07-29T04:52:59;23.50;99.90
39957;DHT22;48483;44.640;7.494;2022-07-29T04:55:26;23.40;99.90
39957;DHT22;48483;44.640;7.494;2022-07-29T04:57:53;23.50;99.90
39957;DHT22;48483;44.640;7.494;2022-07-29T05:00:20;23.50;99.90
39957;DHT22;48483;44.640;7.494;2022-07-29T05:02:46;23.50;99.90
39957;DHT22;48483;44.640;7.494;2022-07-29T05:05:13;23.50;99.90
39957;DHT22;48483;44.640;7.494;2022-07-29T05:07:40;23.50;99.90
39957;DHT22;48483;44.640;7.494;2022-07-29T05:10:09;23.60;99.90
39957;DHT22;48483;44.640;7.494;2022-07-29T05:12:36;23.60;99.90
39957;DHT22;48483;44.640;7.494;2022-07-29T05:15:03;23.70;99.90
39957;DHT22;48483;44.640;7.494;2022-07-29T05:17:30;23.70;99.90
39957;DHT22;48483;44.640;7.494;2022-07-29T05:19:56;23.70;99.90
39957;DHT22;48483;44.640;7.494;2022-07-29T05:22:23;23.70;99.90
39957;DHT22;48483;44.640;7.494;2022-07-29T05:24:50;23.70;99.90
39957;DHT22;48483;44.640;7.494;2022-07-29T05:27:18;23.80;99.90
39957;DHT22;48483;44.640;7.494;2022-07-29T05:29:45;23.80;99.90
39957;DHT22;48483;44.640;7.494;2022-07-29T05:32:12;23.80;99.90
39957;DHT22;48483;44.640;7.494;2022-07-29T05:34:39;23.80;99.90
39957;DHT22;48483;44.640;7.494;2022-07-29T05:37:05;23.90;99.90
39957;DHT22;48483;44.640;7.494;2022-07-29T05:39:32;23.90;99.90
39957;DHT22;48483;44.640;7.494;2022-07-29T05:41:59;23.90;99.90
39957;DHT22;48483;44.640;7.494;2022-07-29T05:44:27;23.90;99.90
39957;DHT22;48483;44.640;7.494;2022-07-29T05:46:53;23.90;99.90
39957;DHT22;48483;44.640;7.494;2022-07-29T05:49:20;23.90;99.90
39957;DHT22;48483;44.640;7.494;2022-07-29T05:51:47;24.00;99.90
39957;DHT22;48483;44.640;7.494;2022-07-29T05:54:15;24.00;99.90
39957;DHT22;48483;44.640;7.494;2022-07-29T05:56:41;24.10;99.90
39957;DHT22;48483;44.640;7.494;2022-07-29T05:59:08;24.10;99.90
39957;DHT22;48483;44.640;7.494;2022-07-29T06:01:36;24.20;99.90
39957;DHT22;48483;44.640;7.494;2022-07-29T06:04:05;24.20;99.90
39957;DHT22;48483;44.640;7.494;2022-07-29T06:06:32;24.10;99.90
39957;DHT22;48483;44.640;7.494;2022-07-29T06:08:58;24.10;99.90
39957;DHT22;48483;44.640;7.494;2022-07-29T06:11:25;24.10;99.90
39957;DHT22;48483;44.640;7.494;2022-07-29T06:13:52;24.20;99.90
39957;DHT22;48483;44.640;7.494;2022-07-29T06:16:19;24.20;99.90
39957;DHT22;48483;44.640;7.494;2022-07-29T06:18:47;24.20;99.90
39957;DHT22;48483;44.640;7.494;2022-07-29T06:21:14;24.20;99.90
39957;DHT22;48483;44.640;7.494;2022-07-29T06:23:41;24.20;99.90
39957;DHT22;48483;44.640;7.494;2022-07-29T06:26:08;24.20;99.90
39957;DHT22;48483;44.640;7.494;2022-07-29T06:28:35;24.40;99.90
39957;DHT22;48483;44.640;7.494;2022-07-29T06:31:01;24.50;99.90
39957;DHT22;48483;44.640;7.494;2022-07-29T06:33:28;24.60;99.90
39957;DHT22;48483;44.640;7.494;2022-07-29T06:35:57;24.70;99.90
39957;DHT22;48483;44.640;7.494;2022-07-29T06:38:23;24.70;99.90
39957;DHT22;48483;44.640;7.494;2022-07-29T06:40:50;24.70;99.90
39957;DHT22;48483;44.640;7.494;2022-07-29T06:43:35;24.70;99.90
39957;DHT22;48483;44.640;7.494;2022-07-29T06:46:05;24.80;99.90
39957;DHT22;48483;44.640;7.494;2022-07-29T06:48:33;24.80;99.90
39957;DHT22;48483;44.640;7.494;2022-07-29T06:51:01;24.70;99.90
39957;DHT22;48483;44.640;7.494;2022-07-29T06:53:29;24.70;99.90
39957;DHT22;48483;44.640;7.494;2022-07-29T06:55:56;24.80;99.90
39957;DHT22;48483;44.640;7.494;2022-07-29T06:58:24;24.90;99.90
39957;DHT22;48483;44.640;7.494;2022-07-29T07:01:00;25.10;99.90
39957;DHT22;48483;44.640;7.494;2022-07-29T07:03:27;25.10;99.90
39957;DHT22;48483;44.640;7.494;2022-07-29T07:05:54;25.10;99.90
39957;DHT22;48483;44.640;7.494;2022-07-29T07:08:23;25.20;99.90
39957;DHT22;48483;44.640;7.494;2022-07-29T07:10:50;25.10;99.90
39957;DHT22;48483;44.640;7.494;2022-07-29T07:13:17;25.20;99.90
39957;DHT22;48483;44.640;7.494;2022-07-29T07:15:44;25.30;99.90
39957;DHT22;48483;44.640;7.494;2022-07-29T07:18:11;25.30;99.90
39957;DHT22;48483;44.640;7.494;2022-07-29T07:20:38;25.20;99.90
39957;DHT22;48483;44.640;7.494;2022-07-29T07:23:05;25.20;99.90
39957;DHT22;48483;44.640;7.494;2022-07-29T07:25:33;25.10;99.90
39957;DHT22;48483;44.640;7.494;2022-07-29T07:28:00;25.10;99.90
39957;DHT22;48483;44.640;7.494;2022-07-29T07:30:27;25.20;99.90
39957;DHT22;48483;44.640;7.494;2022-07-29T07:32:54;25.30;99.90
39957;DHT22;48483;44.640;7.494;2022-07-29T07:35:22;25.20;99.90
39957;DHT22;48483;44.640;7.494;2022-07-29T07:37:49;25.20;99.90
39957;DHT22;48483;44.640;7.494;2022-07-29T07:40:16;25.20;99.90
39957;DHT22;48483;44.640;7.494;2022-07-29T07:42:44;25.20;99.90
39957;DHT22;48483;44.640;7.494;2022-07-29T07:45:11;25.20;99.90
39957;DHT22;48483;44.640;7.494;2022-07-29T07:47:38;25.30;99.90
39957;DHT22;48483;44.640;7.494;2022-07-29T07:50:09;25.20;99.90
39957;DHT22;48483;44.640;7.494;2022-07-29T07:52:46;25.20;99.90
39957;DHT22;48483;44.640;7.494;2022-07-29T07:55:12;25.20;99.90
39957;DHT22;48483;44.640;7.494;2022-07-29T07:57:39;25.20;99.90
39957;DHT22;48483;44.640;7.494;2022-07-29T08:00:09;25.20;99.90
39957;DHT22;48483;44.640;7.494;2022-07-29T08:02:39;25.20;99.90
39957;DHT22;48483;44.640;7.494;2022-07-29T08:05:06;25.20;99.90
39957;DHT22;48483;44.640;7.494;2022-07-29T08:07:33;25.30;99.90
39957;DHT22;48483;44.640;7.494;2022-07-29T08:10:00;25.30;99.90
39957;DHT22;48483;44.640;7.494;2022-07-29T08:12:27;25.30;99.90
39957;DHT22;48483;44.640;7.494;2022-07-29T08:14:54;25.40;99.90
39957;DHT22;48483;44.640;7.494;2022-07-29T08:17:22;25.40;99.90
39957;DHT22;48483;44.640;7.494;2022-07-29T08:19:49;25.50;99.90
39957;DHT22;48483;44.640;7.494;2022-07-29T08:22:16;25.60;99.90
39957;DHT22;48483;44.640;7.494;2022-07-29T08:24:43;25.60;99.90
39957;DHT22;48483;44.640;7.494;2022-07-29T08:27:10;25.70;99.90
39957;DHT22;48483;44.640;7.494;2022-07-29T08:29:38;25.70;99.90
39957;DHT22;48483;44.640;7.494;2022-07-29T08:32:06;25.80;99.90
39957;DHT22;48483;44.640;7.494;2022-07-29T08:34:34;25.90;99.90
39957;DHT22;48483;44.640;7.494;2022-07-29T08:37:00;26.10;99.90
39957;DHT22;48483;44.640;7.494;2022-07-29T08:39:27;26.30;99.90
39957;DHT22;48483;44.640;7.494;2022-07-29T08:41:54;26.40;99.90
39957;DHT22;48483;44.640;7.494;2022-07-29T08:44:21;26.60;99.90
39957;DHT22;48483;44.640;7.494;2022-07-29T08:46:48;26.80;99.90
39957;DHT22;48483;44.640;7.494;2022-07-29T08:49:16;26.80;99.90
39957;DHT22;48483;44.640;7.494;2022-07-29T08:51:44;26.80;99.90
39957;DHT22;48483;44.640;7.494;2022-07-29T08:54:11;26.80;99.70
39957;DHT22;48483;44.640;7.494;2022-07-29T08:56:43;26.70;99.90
39957;DHT22;48483;44.640;7.494;2022-07-29T08:59:10;26.80;99.90
39957;DHT22;48483;44.640;7.494;2022-07-29T09:01:38;26.90;99.80
39957;DHT22;48483;44.640;7.494;2022-07-29T09:04:10;26.90;99.50
39957;DHT22;48483;44.640;7.494;2022-07-29T09:06:42;26.90;99.10
39957;DHT22;48483;44.640;7.494;2022-07-29T09:09:12;27.00;99.20
39957;DHT22;48483;44.640;7.494;2022-07-29T09:11:40;27.00;99.10
39957;DHT22;48483;44.640;7.494;2022-07-29T09:14:08;27.00;98.80
39957;DHT22;48483;44.640;7.494;2022-07-29T09:16:45;27.00;99.20
39957;DHT22;48483;44.640;7.494;2022-07-29T09:19:20;27.00;99.40
39957;DHT22;48483;44.640;7.494;2022-07-29T09:21:47;26.80;99.90
39957;DHT22;48483;44.640;7.494;2022-07-29T09:24:43;26.90;99.90
39957;DHT22;48483;44.640;7.494;2022-07-29T09:27:19;27.00;99.90
39957;DHT22;48483;44.640;7.494;2022-07-29T09:29:56;27.10;99.50
39957;DHT22;48483;44.640;7.494;2022-07-29T09:32:23;27.20;99.70
39957;DHT22;48483;44.640;7.494;2022-07-29T09:34:50;27.20;99.90
39957;DHT22;48483;44.640;7.494;2022-07-29T09:37:26;27.20;99.90
39957;DHT22;48483;44.640;7.494;2022-07-29T09:39:54;27.30;99.90
39957;DHT22;48483;44.640;7.494;2022-07-29T09:42:28;27.40;99.90
39957;DHT22;48483;44.640;7.494;2022-07-29T09:44:55;27.40;99.90
39957;DHT22;48483;44.640;7.494;2022-07-29T09:47:22;27.40;99.90
39957;DHT22;48483;44.640;7.494;2022-07-29T09:49:54;27.30;99.90
39957;DHT22;48483;44.640;7.494;2022-07-29T09:52:21;27.30;99.90
39957;DHT22;48483;44.640;7.494;2022-07-29T09:54:48;27.40;99.90
39957;DHT22;48483;44.640;7.494;2022-07-29T09:57:28;27.30;99.90
39957;DHT22;48483;44.640;7.494;2022-07-29T10:00:00;27.30;99.90
39957;DHT22;48483;44.640;7.494;2022-07-29T10:02:30;27.40;99.90
39957;DHT22;48483;44.640;7.494;2022-07-29T10:04:57;27.30;99.90
39957;DHT22;48483;44.640;7.494;2022-07-29T10:07:24;27.40;99.90
39957;DHT22;48483;44.640;7.494;2022-07-29T10:09:53;27.50;99.90
39957;DHT22;48483;44.640;7.494;2022-07-29T10:12:21;27.50;99.90
39957;DHT22;48483;44.640;7.494;2022-07-29T10:14:50;27.30;99.90
39957;DHT22;48483;44.640;7.494;2022-07-29T10:17:18;27.20;99.90
39957;DHT22;48483;44.640;7.494;2022-07-29T10:19:46;27.30;99.90
39957;DHT22;48483;44.640;7.494;2022-07-29T10:22:13;27.20;99.90
39957;DHT22;48483;44.640;7.494;2022-07-29T10:24:40;27.20;99.90
39957;DHT22;48483;44.640;7.494;2022-07-29T10:27:08;27.30;99.90
39957;DHT22;48483;44.640;7.494;2022-07-29T10:29:35;27.40;99.90
39957;DHT22;48483;44.640;7.494;2022-07-29T10:32:16;27.40;99.90
39957;DHT22;48483;44.640;7.494;2022-07-29T10:37:57;27.50;99.90
39957;DHT22;48483;44.640;7.494;2022-07-29T10:40:34;27.50;99.90
39957;DHT22;48483;44.640;7.494;2022-07-29T10:43:25;27.60;99.90
39957;DHT22;48483;44.640;7.494;2022-07-29T10:45:56;27.60;99.90
39957;DHT22;48483;44.640;7.494;2022-07-29T10:48:25;27.60;99.80
39957;DHT22;48483;44.640;7.494;2022-07-29T10:50:54;27.50;99.90
39957;DHT22;48483;44.640;7.494;2022-07-29T10:53:21;27.30;99.90
39957;DHT22;48483;44.640;7.494;2022-07-29T10:55:48;27.20;99.90
39957;DHT22;48483;44.640;7.494;2022-07-29T10:58:17;27.30;99.60
39957;DHT22;48483;44.640;7.494;2022-07-29T11:00:45;27.20;99.90
39957;DHT22;48483;44.640;7.494;2022-07-29T11:03:46;27.40;99.80
39957;DHT22;48483;44.640;7.494;2022-07-29T11:06:13;27.30;99.90
39957;DHT22;48483;44.640;7.494;2022-07-29T11:08:41;27.30;99.90
39957;DHT22;48483;44.640;7.494;2022-07-29T11:11:34;27.20;99.90
39957;DHT22;48483;44.640;7.494;2022-07-29T11:14:03;27.10;99.90
39957;DHT22;48483;44.640;7.494;2022-07-29T11:16:59;27.30;99.90
39957;DHT22;48483;44.640;7.494;2022-07-29T11:19:30;27.40;99.90
39957;DHT22;48483;44.640;7.494;2022-07-29T11:21:57;27.40;99.90
39957;DHT22;48483;44.640;7.494;2022-07-29T11:24:25;27.40;99.90
39957;DHT22;48483;44.640;7.494;2022-07-29T11:27:07;27.40;99.90
39957;DHT22;48483;44.640;7.494;2022-07-29T11:29:37;27.50;99.90
39957;DHT22;48483;44.640;7.494;2022-07-29T11:32:10;27.50;99.90
39957;DHT22;48483;44.640;7.494;2022-07-29T11:34:39;27.50;99.80
39957;DHT22;48483;44.640;7.494;2022-07-29T11:37:18;27.40;99.90
39957;DHT22;48483;44.640;7.494;2022-07-29T11:39:46;27.50;99.80
39957;DHT22;48483;44.640;7.494;2022-07-29T11:42:42;27.40;99.80
39957;DHT22;48483;44.640;7.494;2022-07-29T11:45:12;27.40;99.60
39957;DHT22;48483;44.640;7.494;2022-07-29T11:47:47;27.40;99.50
39957;DHT22;48483;44.640;7.494;2022-07-29T11:50:26;27.20;99.90
39957;DHT22;48483;44.640;7.494;2022-07-29T11:52:54;27.20;99.90
39957;DHT22;48483;44.640;7.494;2022-07-29T11:55:23;27.20;99.90
39957;DHT22;48483;44.640;7.494;2022-07-29T11:57:52;27.10;99.90
39957;DHT22;48483;44.640;7.494;2022-07-29T12:00:27;27.20;99.90
39957;DHT22;48483;44.640;7.494;2022-07-29T12:02:55;27.30;99.90
39957;DHT22;48483;44.640;7.494;2022-07-29T12:05:33;27.40;99.90
39957;DHT22;48483;44.640;7.494;2022-07-29T12:08:12;27.30;99.50
39957;DHT22;48483;44.640;7.494;2022-07-29T12:10:41;27.30;99.40
39957;DHT22;48483;44.640;7.494;2022-07-29T12:13:09;27.20;99.80
39957;DHT22;48483;44.640;7.494;2022-07-29T12:15:36;27.20;99.60
39957;DHT22;48483;44.640;7.494;2022-07-29T12:18:14;27.30;99.60
39957;DHT22;48483;44.640;7.494;2022-07-29T12:20:43;27.30;99.60
39957;DHT22;48483;44.640;7.494;2022-07-29T12:23:10;27.20;99.80
39957;DHT22;48483;44.640;7.494;2022-07-29T12:25:40;27.00;99.90
39957;DHT22;48483;44.640;7.494;2022-07-29T12:28:08;26.90;99.90
39957;DHT22;48483;44.640;7.494;2022-07-29T12:30:41;26.90;99.90
39957;DHT22;48483;44.640;7.494;2022-07-29T12:33:13;26.90;99.90
39957;DHT22;48483;44.640;7.494;2022-07-29T12:35:44;26.90;99.90
39957;DHT22;48483;44.640;7.494;2022-07-29T12:38:11;26.90;99.90
39957;DHT22;48483;44.640;7.494;2022-07-29T12:40:38;26.80;99.90
39957;DHT22;48483;44.640;7.494;2022-07-29T12:43:09;26.70;99.90
39957;DHT22;48483;44.640;7.494;2022-07-29T12:45:36;26.60;99.90
39957;DHT22;48483;44.640;7.494;2022-07-29T12:48:05;26.50;99.90
39957;DHT22;48483;44.640;7.494;2022-07-29T12:50:32;26.30;99.90
39957;DHT22;48483;44.640;7.494;2022-07-29T12:53:12;26.20;99.90
39957;DHT22;48483;44.640;7.494;2022-07-29T12:55:44;26.20;99.90
39957;DHT22;48483;44.640;7.494;2022-07-29T12:58:29;26.20;99.90
39957;DHT22;48483;44.640;7.494;2022-07-29T13:01:08;26.10;99.90
39957;DHT22;48483;44.640;7.494;2022-07-29T13:03:49;26.00;99.90
39957;DHT22;48483;44.640;7.494;2022-07-29T13:06:30;26.00;99.90
39957;DHT22;48483;44.640;7.494;2022-07-29T13:09:07;26.00;99.90
39957;DHT22;48483;44.640;7.494;2022-07-29T13:11:36;26.20;99.90
39957;DHT22;48483;44.640;7.494;2022-07-29T13:14:03;26.20;99.90
39957;DHT22;48483;44.640;7.494;2022-07-29T13:16:30;26.20;99.90
39957;DHT22;48483;44.640;7.494;2022-07-29T13:19:08;26.10;99.90
39957;DHT22;48483;44.640;7.494;2022-07-29T13:21:36;26.10;99.90
39957;DHT22;48483;44.640;7.494;2022-07-29T13:24:05;26.10;99.90
39957;DHT22;48483;44.640;7.494;2022-07-29T13:26:32;26.10;99.90
39957;DHT22;48483;44.640;7.494;2022-07-29T13:28:59;26.00;99.90
39957;DHT22;48483;44.640;7.494;2022-07-29T13:31:26;26.10;99.90
39957;DHT22;48483;44.640;7.494;2022-07-29T13:33:52;26.20;99.90
39957;DHT22;48483;44.640;7.494;2022-07-29T13:36:19;26.20;99.90
39957;DHT22;48483;44.640;7.494;2022-07-29T13:38:46;26.10;99.90
39957;DHT22;48483;44.640;7.494;2022-07-29T13:41:15;26.10;99.90
39957;DHT22;48483;44.640;7.494;2022-07-29T13:43:41;26.00;99.90
39957;DHT22;48483;44.640;7.494;2022-07-29T13:46:08;26.00;99.90
39957;DHT22;48483;44.640;7.494;2022-07-29T13:48:35;26.00;99.90
39957;DHT22;48483;44.640;7.494;2022-07-29T13:51:01;26.00;99.90
39957;DHT22;48483;44.640;7.494;2022-07-29T13:53:28;26.00;99.90
39957;DHT22;48483;44.640;7.494;2022-07-29T13:55:55;26.00;99.90
39957;DHT22;48483;44.640;7.494;2022-07-29T13:58:23;26.10;99.90
39957;DHT22;48483;44.640;7.494;2022-07-29T14:00:50;26.00;99.90
39957;DHT22;48483;44.640;7.494;2022-07-29T14:03:17;26.10;99.90
39957;DHT22;48483;44.640;7.494;2022-07-29T14:05:43;26.00;99.90
39957;DHT22;48483;44.640;7.494;2022-07-29T14:08:10;26.10;99.90
39957;DHT22;48483;44.640;7.494;2022-07-29T14:10:37;26.10;99.90
39957;DHT22;48483;44.640;7.494;2022-07-29T14:13:04;26.00;99.90
39957;DHT22;48483;44.640;7.494;2022-07-29T14:15:33;26.00;99.90
39957;DHT22;48483;44.640;7.494;2022-07-29T14:18:00;26.10;99.90
39957;DHT22;48483;44.640;7.494;2022-07-29T14:20:27;26.10;99.90
39957;DHT22;48483;44.640;7.494;2022-07-29T14:22:56;26.10;99.90
39957;DHT22;48483;44.640;7.494;2022-07-29T14:25:23;26.10;99.90
39957;DHT22;48483;44.640;7.494;2022-07-29T14:27:49;26.00;99.90
39957;DHT22;48483;44.640;7.494;2022-07-29T14:30:16;26.00;99.90
39957;DHT22;48483;44.640;7.494;2022-07-29T14:32:44;26.00;99.90
39957;DHT22;48483;44.640;7.494;2022-07-29T14:35:11;26.00;99.90
39957;DHT22;48483;44.640;7.494;2022-07-29T14:37:38;26.00;99.90
39957;DHT22;48483;44.640;7.494;2022-07-29T14:40:06;26.00;99.90
39957;DHT22;48483;44.640;7.494;2022-07-29T14:42:32;26.00;99.90
39957;DHT22;48483;44.640;7.494;2022-07-29T14:44:59;25.90;99.90
39957;DHT22;48483;44.640;7.494;2022-07-29T14:47:26;26.00;99.90
39957;DHT22;48483;44.640;7.494;2022-07-29T14:49:54;25.90;99.90
39957;DHT22;48483;44.640;7.494;2022-07-29T14:52:22;26.00;99.90
39957;DHT22;48483;44.640;7.494;2022-07-29T14:54:49;26.00;99.90
39957;DHT22;48483;44.640;7.494;2022-07-29T14:57:15;26.00;99.90
39957;DHT22;48483;44.640;7.494;2022-07-29T14:59:42;26.00;99.90
39957;DHT22;48483;44.640;7.494;2022-07-29T15:02:09;25.90;99.90
39957;DHT22;48483;44.640;7.494;2022-07-29T15:04:36;25.70;99.90
39957;DHT22;48483;44.640;7.494;2022-07-29T15:07:04;25.70;99.90
39957;DHT22;48483;44.640;7.494;2022-07-29T15:09:31;25.60;99.90
39957;DHT22;48483;44.640;7.494;2022-07-29T15:11:57;25.60;99.90
39957;DHT22;48483;44.640;7.494;2022-07-29T15:14:24;25.60;99.90
39957;DHT22;48483;44.640;7.494;2022-07-29T15:16:51;25.50;99.90
39957;DHT22;48483;44.640;7.494;2022-07-29T15:19:18;25.40;99.90
39957;DHT22;48483;44.640;7.494;2022-07-29T15:21:44;25.40;99.90
39957;DHT22;48483;44.640;7.494;2022-07-29T15:24:12;25.50;99.90
39957;DHT22;48483;44.640;7.494;2022-07-29T15:26:39;25.40;99.90
39957;DHT22;48483;44.640;7.494;2022-07-29T15:29:06;25.40;99.90
39957;DHT22;48483;44.640;7.494;2022-07-29T15:31:33;25.50;99.90
39957;DHT22;48483;44.640;7.494;2022-07-29T15:33:59;25.40;99.90
39957;DHT22;48483;44.640;7.494;2022-07-29T15:36:26;25.30;99.90
39957;DHT22;48483;44.640;7.494;2022-07-29T15:38:53;25.20;99.90
39957;DHT22;48483;44.640;7.494;2022-07-29T15:41:21;25.20;99.90
39957;DHT22;48483;44.640;7.494;2022-07-29T15:43:49;25.40;99.90
39957;DHT22;48483;44.640;7.494;2022-07-29T15:46:18;25.30;99.90